Time;durP1;ratioP1;P1;durP2;ratioP2;P2;SDS_P1;SDS_P2;PMS_P1;PMS_P2;Temp;Humidity;BMP_temperature;BMP_pressure;BME280_temperature;BME280_humidity;BME280_pressure;Samples;Min_cycle;Max_cycle;Signal;HPM_P1;HPM_P2
2021/12/25 00:00:08;;;;;;;0.70;0.50;;;;;;;-4.52;100.00;100067.59;5037173;28;20564;-71
2021/12/25 00:02:35;;;;;;;1.07;0.60;;;;;;;-4.60;100.00;100082.66;5030379;28;21351;-71
2021/12/25 00:05:01;;;;;;;3.50;0.70;;;;;;;-4.66;100.00;100077.41;5030095;28;20453;-72
2021/12/25 00:07:29;;;;;;;0.80;0.77;;;;;;;-4.69;100.00;100077.34;5021462;28;20458;-72
2021/12/25 00:09:57;;;;;;;1.47;0.47;;;;;;;-4.77;100.00;100074.56;5021781;28;20473;-72
2021/12/25 00:12:24;;;;;;;0.50;0.50;;;;;;;-4.83;100.00;100075.28;5020697;28;20472;-71
2021/12/25 00:14:51;;;;;;;0.53;0.53;;;;;;;-4.92;100.00;100075.03;5027164;28;20473;-72
2021/12/25 00:17:17;;;;;;;0.50;0.50;;;;;;;-4.98;100.00;100088.44;5028687;28;20539;-71
2021/12/25 00:19:44;;;;;;;0.63;0.60;;;;;;;-5.05;100.00;100078.03;5031312;28;20563;-72
2021/12/25 00:22:10;;;;;;;2.00;0.70;;;;;;;-5.14;100.00;100078.63;5026580;28;20502;-72
2021/12/25 00:24:43;;;;;;;0.93;0.60;;;;;;;-5.25;100.00;100088.50;5025919;28;20464;-72
2021/12/25 00:27:32;;;;;;;0.60;0.60;;;;;;;-5.30;100.00;100091.72;5026657;28;20478;-72
2021/12/25 00:30:11;;;;;;;0.57;0.50;;;;;;;-5.39;100.00;100095.72;5025511;28;20447;-72
2021/12/25 00:32:52;;;;;;;0.60;0.50;;;;;;;-5.43;100.00;100103.22;5026442;28;20462;-71
2021/12/25 00:35:18;;;;;;;1.03;0.60;;;;;;;-5.51;100.00;100098.72;5033964;28;20479;-71
2021/12/25 00:37:45;;;;;;;1.70;0.70;;;;;;;-5.59;100.00;100110.38;5026192;28;20467;-71
2021/12/25 00:40:13;;;;;;;1.57;0.70;;;;;;;-5.62;100.00;100109.41;5023072;28;20502;-72
2021/12/25 00:42:40;;;;;;;2.00;0.80;;;;;;;-5.66;100.00;100123.69;5024964;28;20453;-71
2021/12/25 00:45:07;;;;;;;0.60;0.60;;;;;;;-5.71;100.00;100118.44;5031596;28;20509;-71
2021/12/25 00:47:34;;;;;;;0.87;0.80;;;;;;;-5.78;100.00;100124.16;5019770;28;20463;-70
2021/12/25 00:50:00;;;;;;;0.73;0.70;;;;;;;-5.78;100.00;100128.38;5023774;28;20470;-70
2021/12/25 00:52:27;;;;;;;0.50;0.50;;;;;;;-5.81;100.00;100130.81;5022215;28;20488;-72
2021/12/25 00:54:53;;;;;;;1.03;0.70;;;;;;;-5.87;100.00;100133.13;5023506;28;20473;-71
2021/12/25 00:57:21;;;;;;;0.77;0.70;;;;;;;-5.90;100.00;100132.22;5019911;28;21031;-72
2021/12/25 00:59:47;;;;;;;1.63;0.80;;;;;;;-5.93;100.00;100138.88;5035033;28;20463;-71
2021/12/25 01:02:14;;;;;;;0.73;0.73;;;;;;;-5.97;100.00;100139.66;5026520;28;20459;-71
2021/12/25 01:04:41;;;;;;;0.80;0.80;;;;;;;-5.99;100.00;100152.28;5025717;28;20455;-71
2021/12/25 01:07:07;;;;;;;2.10;0.80;;;;;;;-6.01;100.00;100155.59;5022964;28;20466;-71
2021/12/25 01:09:35;;;;;;;1.00;0.90;;;;;;;-6.06;100.00;100152.03;5021713;28;20647;-71
2021/12/25 01:12:04;;;;;;;0.60;0.60;;;;;;;-6.05;100.00;100151.22;5021786;28;20501;-71
2021/12/25 01:14:37;;;;;;;5.17;0.77;;;;;;;-6.09;100.00;100158.72;5023385;28;20478;-71
2021/12/25 01:18:02;;;;;;;1.00;0.50;;;;;;;-6.07;100.00;100170.63;5025462;28;20467;-71
2021/12/25 01:20:59;;;;;;;0.60;0.60;;;;;;;-6.07;100.00;100176.53;5028919;28;20961;-71
2021/12/25 01:23:54;;;;;;;1.07;0.50;;;;;;;-6.07;100.00;100179.09;5025172;28;21091;-71
2021/12/25 01:29:28;;;;;;;0.53;0.53;;;;;;;-6.04;100.00;100184.28;5030197;28;20546;-72
2021/12/25 01:32:17;;;;;;;0.80;0.67;;;;;;;-6.05;100.00;100180.03;5027531;28;21141;-71
2021/12/25 01:35:16;;;;;;;1.13;0.87;;;;;;;-6.05;100.00;100197.78;5017345;28;20822;-71
2021/12/25 01:38:18;;;;;;;2.13;0.60;;;;;;;-6.04;100.00;100191.88;5021238;28;20475;-71
2021/12/25 01:41:14;;;;;;;1.77;0.80;;;;;;;-6.07;100.00;100191.78;5018017;28;20556;-71
2021/12/25 01:49:44;;;;;;;1.90;0.80;;;;;;;-6.13;100.00;100197.50;5024932;28;20492;-71
2021/12/25 01:52:10;;;;;;;1.00;0.70;;;;;;;-6.10;100.00;100194.22;5025436;28;20672;-71
2021/12/25 01:54:37;;;;;;;0.70;0.70;;;;;;;-6.06;100.00;100203.66;5024812;28;20467;-71
2021/12/25 01:57:04;;;;;;;0.70;0.70;;;;;;;-6.07;100.00;100212.09;5025995;28;21011;-71
2021/12/25 01:59:30;;;;;;;0.97;0.87;;;;;;;-6.09;100.00;100209.50;5020150;28;20745;-70
2021/12/25 02:01:57;;;;;;;1.07;0.60;;;;;;;-6.16;100.00;100204.16;5019034;28;20504;-71
2021/12/25 02:04:24;;;;;;;1.60;0.70;;;;;;;-6.12;100.00;100227.16;5021415;28;20459;-71
2021/12/25 02:06:52;;;;;;;2.03;0.70;;;;;;;-6.15;100.00;100236.34;5018579;28;20474;-71
2021/12/25 02:09:18;;;;;;;0.50;0.50;;;;;;;-6.21;100.00;100225.97;5030875;28;20501;-71
2021/12/25 02:11:46;;;;;;;0.73;0.73;;;;;;;-6.20;100.00;100220.09;5023928;28;20505;-71
2021/12/25 02:14:13;;;;;;;2.03;0.80;;;;;;;-6.28;100.00;100223.25;5028535;28;21112;-72
2021/12/25 02:16:51;;;;;;;0.60;0.60;;;;;;;-6.28;100.00;100240.13;5022475;28;20462;-71
2021/12/25 02:19:33;;;;;;;4.10;0.67;;;;;;;-6.21;100.00;100243.75;5026190;28;20490;-71
2021/12/25 02:22:08;;;;;;;0.70;0.70;;;;;;;-6.31;100.00;100242.56;5024281;28;20478;-71
2021/12/25 02:24:36;;;;;;;2.17;0.97;;;;;;;-6.38;100.00;100241.47;5047097;28;20450;-72
2021/12/25 02:27:04;;;;;;;2.17;0.57;;;;;;;-6.36;100.00;100239.84;5025577;28;20528;-71
2021/12/25 02:29:31;;;;;;;5.73;0.90;;;;;;;-6.40;100.00;100252.34;5022941;28;20478;-71
2021/12/25 02:32:00;;;;;;;0.93;0.70;;;;;;;-6.42;100.00;100254.88;5021490;28;20901;-71
2021/12/25 02:34:27;;;;;;;0.80;0.80;;;;;;;-6.44;100.00;100245.47;5022481;28;21006;-71
2021/12/25 02:36:54;;;;;;;4.43;0.80;;;;;;;-6.53;100.00;100245.97;5024605;28;20465;-74
2021/12/25 02:39:23;;;;;;;0.73;0.60;;;;;;;-6.61;100.00;100245.72;5033963;28;20463;-74
2021/12/25 02:41:50;;;;;;;0.70;0.70;;;;;;;-6.55;100.00;100247.59;5025097;28;20708;-74
2021/12/25 02:44:17;;;;;;;0.83;0.70;;;;;;;-6.66;100.00;100253.13;5017917;28;20491;-73
2021/12/25 02:46:48;;;;;;;1.47;0.83;;;;;;;-6.74;100.00;100254.50;5026243;28;20512;-73
2021/12/25 02:49:14;;;;;;;2.10;0.87;;;;;;;-6.77;100.00;100263.69;5023690;28;20459;-73
2021/12/25 02:51:43;;;;;;;0.83;0.80;;;;;;;-6.83;100.00;100259.25;5030955;28;20577;-74
2021/12/25 02:54:10;;;;;;;2.33;0.60;;;;;;;-6.88;100.00;100261.63;5026126;28;20539;-74
2021/12/25 02:56:39;;;;;;;0.63;0.63;;;;;;;-6.92;100.00;100264.81;5032006;28;20982;-73
2021/12/25 02:59:07;;;;;;;0.70;0.70;;;;;;;-6.97;100.00;100273.06;5030589;28;20442;-73
2021/12/25 03:01:34;;;;;;;0.60;0.60;;;;;;;-6.98;100.00;100271.31;5037211;28;20588;-73
2021/12/25 03:04:00;;;;;;;0.57;0.57;;;;;;;-6.97;100.00;100271.38;5019975;28;20571;-73
2021/12/25 03:06:26;;;;;;;0.70;0.60;;;;;;;-6.99;100.00;100278.06;5025292;28;20467;-74
2021/12/25 03:08:54;;;;;;;0.50;0.50;;;;;;;-6.99;100.00;100272.16;5034180;28;20894;-74
2021/12/25 03:11:20;;;;;;;0.50;0.50;;;;;;;-7.07;100.00;100267.66;5024735;28;20833;-74
2021/12/25 03:13:57;;;;;;;0.70;0.70;;;;;;;-6.98;100.00;100268.78;5029939;28;20459;-73
2021/12/25 03:16:26;;;;;;;1.60;0.70;;;;;;;-6.85;100.00;100276.06;5025364;28;20866;-73
2021/12/25 03:18:55;;;;;;;2.60;0.90;;;;;;;-7.05;100.00;100276.16;5030172;28;20514;-74
2021/12/25 03:21:21;;;;;;;1.10;1.00;;;;;;;-6.97;100.00;100275.59;5030859;28;20814;-73
2021/12/25 03:23:52;;;;;;;2.33;1.10;;;;;;;-7.02;100.00;100269.47;5037483;28;20451;-73
2021/12/25 03:26:18;;;;;;;4.13;1.10;;;;;;;-7.17;100.00;100277.38;5030076;28;20455;-74
2021/12/25 03:28:50;;;;;;;1.00;0.97;;;;;;;-7.05;100.00;100275.31;5036951;28;20458;-74
2021/12/25 03:31:21;;;;;;;1.00;0.90;;;;;;;-6.96;100.00;100282.41;5023612;28;20533;-74
2021/12/25 03:33:51;;;;;;;0.87;0.83;;;;;;;-6.89;100.00;100275.09;5028714;28;20457;-73
2021/12/25 03:36:18;;;;;;;0.70;0.70;;;;;;;-6.95;100.00;100269.78;5033163;28;20474;-74
2021/12/25 03:38:45;;;;;;;0.77;0.77;;;;;;;-7.17;100.00;100273.16;5037696;28;20460;-73
2021/12/25 03:41:12;;;;;;;1.33;0.87;;;;;;;-7.45;100.00;100274.56;5031647;28;20565;-74
2021/12/25 03:43:40;;;;;;;5.00;1.10;;;;;;;-7.61;100.00;100262.94;5026383;28;20528;-74
2021/12/25 03:46:09;;;;;;;1.17;1.07;;;;;;;-7.66;100.00;100264.41;5033595;28;20989;-73
2021/12/25 03:59:39;;;;;;;0.90;0.60;;;;;;;-7.38;100.00;100282.44;5031588;28;20455;-71
2021/12/25 04:02:12;;;;;;;1.87;0.93;;;;;;;-7.32;100.00;100278.44;5033336;28;20561;-71
2021/12/25 04:04:44;;;;;;;2.63;0.83;;;;;;;-7.33;100.00;100283.47;5021194;28;20559;-71
2021/12/25 04:07:21;;;;;;;1.00;0.80;;;;;;;-7.15;100.00;100296.88;5029666;28;20456;-71
2021/12/25 04:09:48;;;;;;;1.60;0.83;;;;;;;-7.11;100.00;100295.34;5031447;28;21031;-71
2021/12/25 04:12:16;;;;;;;1.43;0.90;;;;;;;-7.28;100.00;100292.09;5031560;28;20456;-71
2021/12/25 04:14:43;;;;;;;2.23;1.27;;;;;;;-7.41;100.00;100298.34;5027157;28;21028;-71
2021/12/25 04:17:10;;;;;;;1.47;1.10;;;;;;;-7.51;100.00;100298.78;5026872;28;20513;-70
2021/12/25 04:19:39;;;;;;;1.60;0.83;;;;;;;-7.61;100.00;100289.94;5028858;28;20563;-71
2021/12/25 04:22:14;;;;;;;1.40;0.90;;;;;;;-7.70;100.00;100300.56;5031250;28;20502;-71
2021/12/25 04:24:42;;;;;;;3.37;1.17;;;;;;;-7.63;100.00;100300.00;5036865;28;20458;-71
2021/12/25 04:27:12;;;;;;;1.30;1.20;;;;;;;-7.50;100.00;100298.84;5024931;28;20467;-71
2021/12/25 04:29:45;;;;;;;0.70;0.70;;;;;;;-7.31;100.00;100300.47;5030836;28;20455;-71
2021/12/25 04:32:46;;;;;;;2.70;0.90;;;;;;;-7.26;100.00;100301.53;5023905;28;20472;-71
2021/12/25 05:03:11;;;;;;;3.17;0.90;;;;;;;-8.08;100.00;100325.06;5033858;28;20446;-71
2021/12/25 05:06:04;;;;;;;2.23;0.80;;;;;;;-7.88;100.00;100325.94;5033910;28;20483;-71
2021/12/25 05:08:37;;;;;;;2.87;0.90;;;;;;;-7.62;100.00;100328.72;5032363;28;20460;-71
2021/12/25 05:11:04;;;;;;;2.43;0.90;;;;;;;-7.72;100.00;100321.53;5026369;28;20498;-70
2021/12/25 05:13:32;;;;;;;0.80;0.80;;;;;;;-7.75;100.00;100329.88;5025132;28;20467;-71
2021/12/25 05:15:59;;;;;;;1.37;0.90;;;;;;;-7.82;100.00;100343.06;5030148;28;20463;-71
2021/12/25 05:18:26;;;;;;;4.67;0.73;;;;;;;-7.76;100.00;100333.19;5034677;28;20457;-70
2021/12/25 05:20:54;;;;;;;0.70;0.70;;;;;;;-7.70;100.00;100332.59;5032011;28;20583;-71
2021/12/25 05:23:20;;;;;;;2.57;0.70;;;;;;;-7.48;100.00;100332.69;5020317;28;20460;-71
2021/12/25 05:25:49;;;;;;;0.70;0.70;;;;;;;-7.70;100.00;100328.41;5025476;28;20458;-71
2021/12/25 05:28:23;;;;;;;0.60;0.60;;;;;;;-7.78;100.00;100339.84;5032512;28;20456;-71
2021/12/25 05:30:52;;;;;;;0.80;0.80;;;;;;;-7.61;100.00;100338.06;5026869;28;20475;-71
2021/12/25 05:33:38;;;;;;;0.70;0.70;;;;;;;-7.49;100.00;100341.09;5035299;28;20457;-70
2021/12/25 05:36:13;;;;;;;1.10;0.70;;;;;;;-7.51;100.00;100347.78;5027338;28;20699;-71
2021/12/25 05:38:51;;;;;;;0.60;0.60;;;;;;;-7.63;100.00;100347.25;5033937;28;20462;-71
2021/12/25 05:41:30;;;;;;;3.43;0.90;;;;;;;-7.77;100.00;100348.31;5027675;28;20483;-71
2021/12/25 05:43:58;;;;;;;0.80;0.70;;;;;;;-7.62;100.00;100354.03;5031782;28;20461;-71
2021/12/25 05:46:46;;;;;;;1.03;0.60;;;;;;;-7.85;100.00;100353.91;5036883;28;20486;-71
2021/12/25 05:49:14;;;;;;;2.40;0.73;;;;;;;-7.77;100.00;100353.38;5031790;28;20455;-71
2021/12/25 05:51:59;;;;;;;1.40;0.80;;;;;;;-7.82;100.00;100366.69;5028118;28;20464;-71
2021/12/25 05:54:28;;;;;;;4.03;1.00;;;;;;;-7.70;100.00;100366.38;5031378;28;20993;-71
2021/12/25 05:57:15;;;;;;;3.30;0.70;;;;;;;-7.80;100.00;100372.69;5033675;28;20850;-73
2021/12/25 05:59:52;;;;;;;0.77;0.77;;;;;;;-7.81;100.00;100376.03;5033887;28;20465;-74
2021/12/25 06:02:38;;;;;;;0.60;0.60;;;;;;;-7.72;100.00;100378.13;5032605;28;20448;-73
2021/12/25 06:05:07;;;;;;;0.97;0.83;;;;;;;-7.70;100.00;100380.72;5032349;28;20482;-74
2021/12/25 06:07:35;;;;;;;1.73;0.73;;;;;;;-7.73;100.00;100383.97;5037157;28;20499;-73
2021/12/25 06:10:03;;;;;;;2.33;1.00;;;;;;;-7.66;100.00;100377.50;5032625;28;20485;-73
2021/12/25 06:12:32;;;;;;;1.10;1.00;;;;;;;-7.72;100.00;100377.22;5034903;28;20461;-73
2021/12/25 06:15:01;;;;;;;1.37;0.80;;;;;;;-7.65;100.00;100385.16;5030769;28;20485;-73
2021/12/25 06:17:47;;;;;;;6.00;0.80;;;;;;;-7.53;100.00;100384.81;5029657;28;21292;-73
2021/12/25 06:20:23;;;;;;;1.13;1.00;;;;;;;-7.84;100.00;100386.03;5021146;28;20523;-73
2021/12/25 06:23:01;;;;;;;1.00;0.90;;;;;;;-7.85;100.00;100396.09;5042617;28;20974;-74
2021/12/25 06:26:02;;;;;;;2.40;1.77;;;;;;;-7.71;100.00;100394.16;4982016;28;20452;-73
2021/12/25 06:28:54;;;;;;;1.83;1.40;;;;;;;-7.71;100.00;100387.41;5016130;28;20490;-74
2021/12/25 06:31:47;;;;;;;1.40;1.30;;;;;;;-7.69;100.00;100393.41;5026018;28;20558;-73
2021/12/25 06:34:37;;;;;;;1.73;1.20;;;;;;;-8.07;100.00;100395.13;5029792;28;20968;-73
2021/12/25 06:37:20;;;;;;;0.80;0.80;;;;;;;-8.26;100.00;100395.94;5032432;28;20449;-71
2021/12/25 06:40:11;;;;;;;1.57;0.80;;;;;;;-8.47;100.00;100400.91;5031966;28;20973;-73
2021/12/25 06:42:40;;;;;;;1.07;0.80;;;;;;;-8.29;100.00;100412.66;5028713;28;20554;-73
2021/12/25 06:45:10;;;;;;;2.63;0.90;;;;;;;-8.14;100.00;100407.41;5021286;28;21012;-73
2021/12/25 06:47:37;;;;;;;0.80;0.80;;;;;;;-8.30;100.00;100409.25;5016638;28;20448;-73
2021/12/25 06:50:08;;;;;;;1.53;1.30;;;;;;;-8.32;100.00;100405.78;5021963;28;20469;-73
2021/12/25 06:52:54;;;;;;;1.60;1.17;;;;;;;-8.22;100.00;100415.53;5041273;28;20481;-73
2021/12/25 06:55:38;;;;;;;1.30;1.13;;;;;;;-8.20;100.00;100408.00;5026760;28;20481;-73
2021/12/25 06:58:14;;;;;;;2.80;1.53;;;;;;;-8.06;100.00;100411.16;5035083;28;20826;-72
2021/12/25 07:00:42;;;;;;;2.37;1.37;;;;;;;-8.04;100.00;100417.16;5030651;28;20484;-73
2021/12/25 07:03:10;;;;;;;2.23;1.30;;;;;;;-8.33;100.00;100421.75;5024044;28;21102;-72
2021/12/25 07:05:55;;;;;;;4.87;1.40;;;;;;;-8.36;100.00;100419.09;5022460;28;20445;-73
2021/12/25 07:08:37;;;;;;;1.53;1.03;;;;;;;-8.13;100.00;100419.28;5022540;28;20467;-73
2021/12/25 07:11:20;;;;;;;0.93;0.93;;;;;;;-8.26;100.00;100426.31;5028449;28;20484;-73
2021/12/25 07:14:00;;;;;;;1.17;1.00;;;;;;;-8.20;100.00;100439.22;5030464;28;20453;-73
2021/12/25 07:16:46;;;;;;;1.77;1.20;;;;;;;-8.05;100.00;100433.16;5031255;28;20480;-72
2021/12/25 07:19:25;;;;;;;1.10;1.00;;;;;;;-8.09;100.00;100437.22;5024933;28;20481;-73
2021/12/25 07:22:08;;;;;;;1.33;1.10;;;;;;;-8.45;100.00;100438.91;5032443;28;20626;-72
2021/12/25 07:24:53;;;;;;;1.10;0.87;;;;;;;-8.44;100.00;100445.69;5036077;28;20824;-73
2021/12/25 07:27:40;;;;;;;1.67;0.93;;;;;;;-8.36;100.00;100441.84;5038309;28;20453;-73
2021/12/25 07:30:07;;;;;;;1.33;1.13;;;;;;;-8.32;100.00;100443.72;5026617;28;20477;-73
2021/12/25 07:32:36;;;;;;;1.63;1.50;;;;;;;-8.27;100.00;100452.38;5035411;28;20459;-72
2021/12/25 07:35:03;;;;;;;4.00;1.47;;;;;;;-8.27;100.00;100452.38;5030192;28;20950;-73
2021/12/25 07:37:30;;;;;;;2.00;1.40;;;;;;;-8.33;100.00;100456.31;5036915;28;20478;-72
2021/12/25 07:39:56;;;;;;;3.73;1.70;;;;;;;-8.40;100.00;100462.75;5031389;28;20466;-73
2021/12/25 07:42:23;;;;;;;2.43;2.10;;;;;;;-8.29;100.00;100459.03;5034459;28;20461;-73
2021/12/25 07:45:06;;;;;;;2.53;1.87;;;;;;;-8.29;100.00;100461.56;5036239;28;20458;-72
2021/12/25 07:47:35;;;;;;;3.30;1.93;;;;;;;-8.25;100.00;100468.53;5032751;28;20465;-73
2021/12/25 07:50:01;;;;;;;4.00;1.97;;;;;;;-8.16;100.00;100474.78;5034138;28;20792;-73
2021/12/25 07:52:28;;;;;;;2.37;1.80;;;;;;;-8.12;100.00;100477.56;5026283;28;20473;-73
2021/12/25 07:54:55;;;;;;;2.10;1.77;;;;;;;-8.17;100.00;100479.00;5038079;28;20457;-73
2021/12/25 07:57:21;;;;;;;8.07;2.50;;;;;;;-8.09;100.00;100472.63;5031605;28;20478;-73
2021/12/25 07:59:48;;;;;;;7.47;4.17;;;;;;;-7.97;100.00;100477.38;5031564;28;20470;-73
2021/12/25 08:02:14;;;;;;;7.57;3.87;;;;;;;-7.93;100.00;100474.22;5024286;28;20453;-73
2021/12/25 08:04:42;;;;;;;9.57;5.27;;;;;;;-7.69;100.00;100481.19;5033237;28;20453;-73
2021/12/25 08:07:09;;;;;;;7.53;4.47;;;;;;;-7.74;100.00;100478.41;5040816;28;20459;-73
2021/12/25 08:09:36;;;;;;;7.70;4.93;;;;;;;-7.68;100.00;100481.25;5030228;28;20480;-72
2021/12/25 08:12:03;;;;;;;10.63;4.73;;;;;;;-7.69;100.00;100481.19;5030511;28;20470;-73
2021/12/25 08:14:31;;;;;;;6.47;3.37;;;;;;;-7.56;100.00;100475.88;5023344;28;20462;-72
2021/12/25 08:17:00;;;;;;;2.77;2.20;;;;;;;-7.47;100.00;100486.41;5032937;28;20479;-73
2021/12/25 08:19:47;;;;;;;1.97;1.60;;;;;;;-7.62;100.00;100485.72;5023872;28;20453;-73
2021/12/25 08:22:49;;;;;;;3.13;1.77;;;;;;;-7.66;100.00;100489.78;5055306;28;20782;-73
2021/12/25 08:25:50;;;;;;;2.50;2.03;;;;;;;-7.72;100.00;100499.66;5025252;28;20454;-72
2021/12/25 08:28:36;;;;;;;4.73;3.40;;;;;;;-7.49;100.00;100503.19;5027334;28;20447;-73
2021/12/25 08:31:21;;;;;;;10.20;4.40;;;;;;;-7.56;100.00;100497.78;5023818;28;20630;-72
2021/12/25 08:34:26;;;;;;;12.57;5.90;;;;;;;-7.74;100.00;100503.75;5006333;28;20482;-73
2021/12/25 08:36:54;;;;;;;11.23;4.43;;;;;;;-7.73;100.00;100499.56;5031598;28;20477;-73
2021/12/25 08:39:20;;;;;;;11.27;6.30;;;;;;;-7.38;100.00;100503.69;5025149;28;20905;-73
2021/12/25 08:41:47;;;;;;;10.93;5.67;;;;;;;-7.17;100.00;100497.81;5030314;28;20523;-73
2021/12/25 08:44:32;;;;;;;15.97;7.07;;;;;;;-7.34;100.00;100504.69;5025815;28;20882;-72
2021/12/25 08:46:59;;;;;;;8.40;4.03;;;;;;;-7.52;100.00;100505.59;5030259;28;21004;-73
2021/12/25 08:49:29;;;;;;;8.33;3.97;;;;;;;-7.66;100.00;100501.59;5029576;28;20462;-71
2021/12/25 08:51:57;;;;;;;7.73;4.37;;;;;;;-7.37;100.00;100491.88;5022243;28;20481;-73
2021/12/25 08:54:27;;;;;;;7.87;4.60;;;;;;;-7.35;100.00;100493.69;5022213;28;20481;-72
2021/12/25 08:56:54;;;;;;;8.10;3.93;;;;;;;-7.59;100.00;100497.66;5034918;28;21136;-73
2021/12/25 08:59:20;;;;;;;10.17;3.50;;;;;;;-7.64;100.00;100505.03;5027121;28;20457;-73
2021/12/25 09:01:47;;;;;;;9.03;5.07;;;;;;;-7.64;100.00;100505.03;5026328;28;21003;-73
2021/12/25 09:04:14;;;;;;;7.53;4.90;;;;;;;-7.60;100.00;100506.91;5025807;28;20458;-73
2021/12/25 09:06:41;;;;;;;7.77;4.43;;;;;;;-7.57;100.00;100512.13;5026316;28;20505;-72
2021/12/25 09:09:09;;;;;;;11.13;6.70;;;;;;;-7.43;100.00;100515.28;5019776;28;20495;-73
2021/12/25 09:11:37;;;;;;;12.47;4.93;;;;;;;-7.45;100.00;100519.41;5034996;28;20481;-73
2021/12/25 09:14:04;;;;;;;6.67;4.50;;;;;;;-7.50;100.00;100521.72;5027220;28;20473;-73
2021/12/25 09:16:30;;;;;;;7.27;3.97;;;;;;;-7.47;100.00;100524.41;5027285;28;20476;-73
2021/12/25 09:18:56;;;;;;;4.33;3.00;;;;;;;-7.40;100.00;100517.94;5025138;28;20479;-73
2021/12/25 09:21:23;;;;;;;4.27;2.70;;;;;;;-7.43;100.00;100521.19;5027923;28;21054;-73
2021/12/25 09:23:50;;;;;;;4.47;2.43;;;;;;;-7.48;100.00;100522.66;5030552;28;20458;-73
2021/12/25 09:26:18;;;;;;;4.23;2.40;;;;;;;-7.51;100.00;100521.66;5025372;28;20471;-73
2021/12/25 09:28:45;;;;;;;4.73;2.50;;;;;;;-7.43;100.00;100527.94;5022019;28;20870;-73
2021/12/25 09:31:11;;;;;;;5.70;3.23;;;;;;;-7.38;100.00;100526.47;5019192;28;20478;-73
2021/12/25 09:33:38;;;;;;;4.27;2.27;;;;;;;-7.31;100.00;100522.56;5022198;28;20467;-72
2021/12/25 09:36:06;;;;;;;5.07;3.10;;;;;;;-7.25;100.00;100522.81;5026793;28;20522;-72
2021/12/25 09:38:33;;;;;;;3.20;2.43;;;;;;;-7.22;100.00;100524.63;5025859;28;20477;-73
2021/12/25 09:41:01;;;;;;;4.20;2.63;;;;;;;-7.16;100.00;100532.47;5020090;28;20513;-73
2021/12/25 09:43:29;;;;;;;8.10;2.70;;;;;;;-7.10;100.00;100532.78;5030907;28;20469;-73
2021/12/25 09:45:56;;;;;;;6.90;2.83;;;;;;;-7.00;100.00;100536.56;5034729;28;20489;-73
2021/12/25 09:48:26;;;;;;;6.50;2.77;;;;;;;-6.93;100.00;100531.84;5028777;28;20465;-73
2021/12/25 09:50:53;;;;;;;5.83;3.17;;;;;;;-6.90;100.00;100533.63;5030110;28;20489;-73
2021/12/25 09:53:20;;;;;;;4.50;3.00;;;;;;;-6.83;100.00;100539.81;5028495;28;20455;-72
2021/12/25 09:55:47;;;;;;;3.40;2.83;;;;;;;-6.80;100.00;100533.22;5029358;28;20454;-73
2021/12/25 09:58:14;;;;;;;4.87;3.07;;;;;;;-6.75;100.00;100536.81;5026984;28;20481;-73
2021/12/25 10:00:44;;;;;;;5.83;3.40;;;;;;;-6.79;100.00;100544.22;5025979;28;20479;-73
2021/12/25 10:03:11;;;;;;;4.70;2.93;;;;;;;-6.77;100.00;100553.63;5020857;28;20517;-73
2021/12/25 10:05:41;;;;;;;4.93;3.07;;;;;;;-6.80;100.00;100550.97;5030720;28;20881;-73
2021/12/25 10:08:11;;;;;;;8.13;3.40;;;;;;;-6.73;100.00;100557.16;5025785;28;20457;-73
2021/12/25 10:10:44;;;;;;;8.90;3.77;;;;;;;-6.67;100.00;100552.34;5028880;28;20466;-73
2021/12/25 10:13:28;;;;;;;5.83;3.50;;;;;;;-6.69;100.00;100554.81;5024573;28;20991;-73
2021/12/25 10:15:57;;;;;;;5.40;2.97;;;;;;;-6.62;100.00;100547.47;5019838;28;20462;-72
2021/12/25 10:18:30;;;;;;;3.37;2.60;;;;;;;-6.59;100.00;100545.94;5016395;28;20463;-73
2021/12/25 10:20:57;;;;;;;6.53;3.27;;;;;;;-6.57;100.00;100551.94;5027250;28;20476;-72
2021/12/25 10:23:29;;;;;;;8.17;3.30;;;;;;;-6.62;100.00;100561.00;5030557;28;20792;-73
2021/12/25 10:25:58;;;;;;;4.60;2.87;;;;;;;-6.68;100.00;100560.78;5019103;28;20477;-73
2021/12/25 10:28:29;;;;;;;5.80;2.87;;;;;;;-6.68;100.00;100548.09;5027554;28;20465;-73
2021/12/25 10:31:00;;;;;;;4.33;3.13;;;;;;;-6.60;100.00;100556.00;5027939;28;20479;-73
2021/12/25 10:33:29;;;;;;;3.67;2.60;;;;;;;-6.69;100.00;100554.81;5020943;28;20455;-73
2021/12/25 10:36:00;;;;;;;6.50;3.13;;;;;;;-6.67;100.00;100560.81;5030183;28;20454;-73
2021/12/25 10:38:29;;;;;;;10.17;4.30;;;;;;;-6.70;100.00;100562.34;5020162;28;20493;-73
2021/12/25 10:41:26;;;;;;;5.33;3.70;;;;;;;-6.68;100.00;100561.63;5032022;28;20465;-73
2021/12/25 10:44:10;;;;;;;5.73;3.27;;;;;;;-6.64;100.00;100560.09;4983397;28;21008;-73
2021/12/25 10:46:49;;;;;;;4.83;2.93;;;;;;;-6.61;100.00;100556.78;5026974;28;20536;-73
2021/12/25 10:49:16;;;;;;;4.57;2.97;;;;;;;-6.70;100.00;100554.75;5020620;28;20462;-73
2021/12/25 10:51:43;;;;;;;5.43;2.53;;;;;;;-6.64;100.00;100560.09;5017267;28;20494;-73
2021/12/25 10:54:12;;;;;;;8.37;2.80;;;;;;;-6.71;100.00;100560.63;5022275;28;20537;-72
2021/12/25 10:56:40;;;;;;;5.77;3.50;;;;;;;-6.69;100.00;100561.56;5026928;28;20478;-73
2021/12/25 10:59:09;;;;;;;10.47;3.57;;;;;;;-6.67;100.00;100558.28;5024189;28;20466;-73
2021/12/25 11:01:38;;;;;;;9.80;4.23;;;;;;;-6.62;100.00;100555.94;5027515;28;20475;-73
2021/12/25 11:04:08;;;;;;;6.50;3.60;;;;;;;-6.67;100.00;100563.34;5029353;28;20459;-73
2021/12/25 11:06:42;;;;;;;6.47;3.90;;;;;;;-6.63;100.00;100560.94;5026115;28;20475;-73
2021/12/25 11:09:09;;;;;;;4.93;3.07;;;;;;;-6.63;100.00;100559.28;5025388;28;20465;-74
2021/12/25 11:11:35;;;;;;;3.57;2.93;;;;;;;-6.62;100.00;100561.00;5024563;28;20489;-72
2021/12/25 11:14:02;;;;;;;5.90;3.60;;;;;;;-6.64;100.00;100556.69;5026921;28;20480;-73
2021/12/25 11:16:33;;;;;;;7.33;4.17;;;;;;;-6.64;100.00;100559.22;5029821;28;20833;-73
2021/12/25 11:19:04;;;;;;;11.90;5.17;;;;;;;-6.61;100.00;100552.63;5029423;28;20971;-72
2021/12/25 11:21:38;;;;;;;6.17;3.23;;;;;;;-6.64;100.00;100557.56;5032484;28;20485;-73
2021/12/25 11:24:13;;;;;;;6.23;3.33;;;;;;;-6.59;100.00;100547.59;5022909;28;20844;-73
2021/12/25 11:26:42;;;;;;;6.27;3.60;;;;;;;-6.62;100.00;100552.53;5027940;28;21085;-73
2021/12/25 11:29:12;;;;;;;7.07;3.70;;;;;;;-6.56;100.00;100552.78;5019073;28;20462;-72
2021/12/25 11:31:40;;;;;;;17.80;6.93;;;;;;;-6.55;100.00;100557.06;5031065;28;20485;-73
2021/12/25 11:34:07;;;;;;;7.97;3.50;;;;;;;-6.61;100.00;100560.22;5025685;28;20995;-73
2021/12/25 11:36:37;;;;;;;7.77;3.27;;;;;;;-6.50;100.00;100556.44;5021450;28;20465;-73
2021/12/25 11:39:05;;;;;;;6.87;3.40;;;;;;;-6.55;100.00;100550.31;5022432;28;20462;-73
2021/12/25 11:41:33;;;;;;;6.67;3.43;;;;;;;-6.54;100.00;100551.22;5023668;28;21002;-73
2021/12/25 11:44:00;;;;;;;5.87;3.23;;;;;;;-6.53;100.00;100546.16;5022498;28;20451;-72
2021/12/25 11:46:38;;;;;;;8.10;3.43;;;;;;;-6.54;100.00;100546.13;5031165;28;20477;-73
2021/12/25 11:49:08;;;;;;;5.87;3.83;;;;;;;-6.49;100.00;100544.63;5022050;28;20466;-73
2021/12/25 11:51:39;;;;;;;10.50;4.40;;;;;;;-6.43;100.00;100544.03;5033444;28;20477;-73
2021/12/25 11:54:29;;;;;;;8.97;4.27;;;;;;;-6.38;100.00;100552.72;5024930;28;20458;-73
2021/12/25 11:57:20;;;;;;;13.47;6.20;;;;;;;-6.32;100.00;100542.78;5028029;28;20485;-73
2021/12/25 11:59:49;;;;;;;7.53;5.03;;;;;;;-6.48;100.00;100548.91;5021022;28;20520;-73
2021/12/25 12:02:40;;;;;;;10.43;5.17;;;;;;;-6.52;100.00;100549.59;5024616;28;20774;-73
2021/12/25 12:05:19;;;;;;;5.73;2.57;;;;;;;-6.54;100.00;100553.75;5029361;28;20456;-73
2021/12/25 12:07:59;;;;;;;7.37;3.20;;;;;;;-6.46;100.00;100549.84;5024692;28;20827;-73
2021/12/25 12:10:57;;;;;;;6.47;3.47;;;;;;;-6.36;100.00;100548.56;5023864;28;20480;-73
2021/12/25 12:13:44;;;;;;;8.27;3.50;;;;;;;-6.39;100.00;100546.75;5019680;28;20454;-73
2021/12/25 12:16:38;;;;;;;8.50;3.83;;;;;;;-6.40;100.00;100552.63;5026053;28;20464;-73
2021/12/25 12:19:46;;;;;;;6.40;3.40;;;;;;;-6.37;100.00;100551.88;5024145;28;20459;-73
2021/12/25 12:23:01;;;;;;;7.47;3.60;;;;;;;-6.40;100.00;100566.97;5014828;28;20835;-73
2021/12/25 12:28:12;;;;;;;7.53;4.03;;;;;;;-6.35;100.00;100565.50;5022651;28;20458;-73
2021/12/25 12:30:56;;;;;;;8.47;4.30;;;;;;;-6.40;100.00;100572.94;5021260;28;20482;-73
2021/12/25 12:33:39;;;;;;;10.30;3.83;;;;;;;-6.42;100.00;100566.94;5021709;28;20478;-73